Cardville, Maine
Current Conditions -  °F | °C
As of 10:53 AM on Friday 31 Oct 2014 (Local Time) from KBGR Reporting Station
Scattered Clouds Scattered Clouds  
Wind Chill: 48°   Ceiling: Unl
Heat Index: 48°   Visibility: 10mi
Dew Point: 33°   Wind: 3mph
Humidity: 56%   Direction: NA
Pressure: 30.06"   Gusts: NA
Location:  45.05°N, 68.6°W
Report Text: KBGR 311453Z VRB03KT 10SM FEW030 SCT060 09/01 A3006 RMK AO2 SLP181 T00890006 50003
Loading
Personal Weather Stations






























Interactive Weather Map
Tropical Storm Tracking
New forecast layout! Learn more

10-Day Weather Forecast

Advertisements
Track Severe Weather on mobile